Terminal Aerodrome Forecast
Issued by NWS

Home | Current Version | Previous Version | Text Only | Print | Product List | Glossary On
Versions: 1 2 3 4 5 6 7 8 9 10 11 12 13 14 15 16 17 18 19 20 21 22 23 24 25 26 27 28 29 30 31 32 33 34
000
FTUS43 KLSX 161127
TAFCPS
TAF
KCPS 161127Z 1612/1712 36008KT 3SM -FZDZSN BR OVC005
     FM161400 01008KT 3SM -SN OVC005
     FM161600 36008KT 1SM -SN BR OVC007
      TEMPO 1616/1620 1/2SM SN FZFG VV005
     FM170400 34010KT 4SM -SN BR OVC011
     FM170700 33010KT P6SM OVC040
     FM170900 32009KT P6SM SCT090=

USA.gov is the U.S. government's official web portal to all federal, state and local government web resources and services.